Time;durP1;ratioP1;P1;durP2;ratioP2;P2;SDS_P1;SDS_P2;PMS_P1;PMS_P2;Temp;Humidity;BMP_temperature;BMP_pressure;BME280_temperature;BME280_humidity;BME280_pressure;Samples;Min_cycle;Max_cycle;Signal;HPM_P1;HPM_P2
2022/04/25 00:01:28;;;;;;;4.90;4.37;;;;;;;9.93;71.70;97868.75;5093467;28;40739;-77
2022/04/25 00:03:55;;;;;;;6.23;5.63;;;;;;;9.93;72.11;97866.09;5093697;28;41676;-76
2022/04/25 00:06:25;;;;;;;6.30;5.40;;;;;;;9.93;71.70;97869.59;5110807;28;42468;-76
2022/04/25 00:08:52;;;;;;;7.30;5.43;;;;;;;9.95;71.74;97867.69;5110660;28;40183;-76
2022/04/25 00:11:20;;;;;;;6.10;4.80;;;;;;;9.97;71.63;97875.50;5110742;28;41447;-76
2022/04/25 00:13:47;;;;;;;6.13;4.47;;;;;;;9.99;71.56;97868.28;5110195;28;41671;-76
2022/04/25 00:16:18;;;;;;;4.63;4.10;;;;;;;9.99;71.51;97870.94;5110334;28;42546;-75
2022/04/25 00:18:47;;;;;;;5.90;4.67;;;;;;;10.02;71.49;97870.69;5109869;28;40077;-76
2022/04/25 00:21:14;;;;;;;6.53;4.70;;;;;;;10.03;71.64;97872.38;5093751;28;40569;-76
2022/04/25 00:23:44;;;;;;;5.67;5.07;;;;;;;10.04;71.47;97868.78;5110390;28;41654;-76
2022/04/25 00:26:11;;;;;;;4.67;4.27;;;;;;;10.05;71.53;97875.75;5110598;28;43196;-75
2022/04/25 00:28:39;;;;;;;5.13;4.63;;;;;;;9.99;71.25;97868.28;5109839;28;38964;-76
2022/04/25 00:31:07;;;;;;;5.43;4.90;;;;;;;10.06;71.40;97877.44;5110157;28;41381;-77
2022/04/25 00:33:35;;;;;;;5.37;4.87;;;;;;;10.06;71.27;97888.00;5110267;28;42966;-76
2022/04/25 00:36:03;;;;;;;4.50;4.07;;;;;;;10.06;71.60;97885.38;5111220;28;42252;-76
2022/04/25 00:38:30;;;;;;;5.07;4.50;;;;;;;10.07;71.15;97884.41;5111517;27;40014;-76
2022/04/25 00:41:00;;;;;;;5.27;4.60;;;;;;;9.68;71.08;97820.34;5113588;28;40847;-76
2022/04/25 00:43:28;;;;;;;5.20;4.70;;;;;;;10.04;71.15;97884.63;5114748;28;42513;-76
2022/04/25 00:45:56;;;;;;;4.67;4.23;;;;;;;10.04;71.29;97879.34;5096314;28;42203;-76
2022/04/25 00:48:26;;;;;;;5.33;4.53;;;;;;;10.03;71.38;97877.66;5130704;27;39913;-76
2022/04/25 00:50:53;;;;;;;5.77;4.77;;;;;;;9.99;70.98;97876.22;5114906;28;41793;-76
2022/04/25 00:53:21;;;;;;;4.67;4.27;;;;;;;9.96;71.10;97879.09;5130453;27;42805;-76
2022/04/25 00:55:49;;;;;;;4.47;4.07;;;;;;;9.92;71.40;97877.63;5096592;28;41228;-76
2022/04/25 00:58:18;;;;;;;4.53;4.13;;;;;;;9.87;71.14;97877.16;5130569;27;39999;-76
2022/04/25 01:00:46;;;;;;;3.93;3.60;;;;;;;9.80;71.20;97876.75;5114898;28;42660;-76
2022/04/25 01:03:14;;;;;;;5.00;4.53;;;;;;;9.74;71.62;97879.88;5096573;28;42169;-76
2022/04/25 01:05:42;;;;;;;4.50;4.10;;;;;;;9.67;71.54;97863.59;5096053;28;42200;-76
2022/04/25 01:08:09;;;;;;;4.70;4.20;;;;;;;9.64;71.37;97870.94;5130432;27;41833;-76
2022/04/25 01:10:37;;;;;;;4.47;3.50;;;;;;;9.55;71.65;97855.75;5113254;28;41701;-76
2022/04/25 01:13:04;;;;;;;5.47;4.13;;;;;;;9.56;71.71;97868.00;5113575;28;42812;-76
2022/04/25 01:15:34;;;;;;;5.47;4.30;;;;;;;9.55;71.40;97867.16;5113214;28;41698;-76
2022/04/25 01:18:02;;;;;;;5.00;4.37;;;;;;;9.26;71.36;97823.56;5113094;28;38742;-76
2022/04/25 01:20:30;;;;;;;5.73;5.20;;;;;;;9.55;71.57;97875.09;5095936;28;40823;-76
2022/04/25 01:27:15;;;;;;;5.03;4.50;;;;;;;9.54;71.42;97865.47;5113799;28;42610;-76
2022/04/25 01:28:34;;;;;;;4.10;3.57;;;;;;;9.61;71.63;97866.72;5112797;28;40931;-76
2022/04/25 01:31:02;;;;;;;4.07;3.43;;;;;;;9.63;71.50;97880.69;5118833;27;41813;-76
2022/04/25 01:33:30;;;;;;;4.77;4.03;;;;;;;9.64;71.51;97884.97;5134415;27;42892;-76
2022/04/25 01:35:57;;;;;;;7.77;4.60;;;;;;;9.68;71.70;97883.81;5133645;27;42465;-76
2022/04/25 01:38:25;;;;;;;4.50;4.10;;;;;;;9.67;71.58;97884.75;5133720;27;40847;-76
2022/04/25 01:40:54;;;;;;;4.20;3.80;;;;;;;9.73;71.22;97891.41;5116343;27;40650;-76
2022/04/25 01:43:21;;;;;;;4.93;4.07;;;;;;;9.75;71.61;97894.78;5115879;27;42946;-76
2022/04/25 01:45:48;;;;;;;3.90;3.53;;;;;;;9.78;71.38;97896.31;5133756;27;42611;-76
2022/04/25 01:48:16;;;;;;;4.67;4.03;;;;;;;9.81;71.60;97896.09;5133283;27;40748;-76
2022/04/25 01:50:44;;;;;;;5.77;4.53;;;;;;;9.83;71.14;97896.84;5115400;27;40668;-76
2022/04/25 01:53:12;;;;;;;4.67;4.03;;;;;;;9.74;71.23;97882.50;5134223;27;42784;-76
2022/04/25 01:55:39;;;;;;;4.50;3.90;;;;;;;9.85;71.16;97898.41;5107403;28;41160;-76
2022/04/25 01:58:08;;;;;;;3.90;3.50;;;;;;;9.86;71.05;97902.75;5113741;28;40862;-76
2022/04/25 02:00:36;;;;;;;4.90;3.80;;;;;;;9.84;71.12;97893.25;5113752;28;41832;-76
2022/04/25 02:03:05;;;;;;;4.40;3.97;;;;;;;9.87;71.24;97898.31;5113340;28;43711;-76
2022/04/25 02:05:33;;;;;;;4.03;3.60;;;;;;;9.88;71.21;97897.34;5112463;28;41944;-76
2022/04/25 02:08:00;;;;;;;5.37;4.07;;;;;;;9.88;71.17;97894.72;5112294;28;41160;-77
2022/04/25 02:10:28;;;;;;;7.53;5.40;;;;;;;9.88;71.43;97900.00;5113675;28;41790;-76
2022/04/25 02:12:56;;;;;;;4.60;4.20;;;;;;;9.88;71.64;97897.34;5094660;28;41499;-76
2022/04/25 02:15:24;;;;;;;5.30;4.33;;;;;;;9.90;71.40;97898.06;5112558;28;41928;-76
2022/04/25 02:17:52;;;;;;;4.80;4.40;;;;;;;9.90;71.27;97903.34;5113478;28;39992;-76
2022/04/25 02:20:20;;;;;;;4.73;4.07;;;;;;;9.90;71.48;97898.06;5094631;28;42319;-76
2022/04/25 02:22:47;;;;;;;5.60;4.17;;;;;;;9.90;71.38;97903.34;5095266;28;42004;-76
2022/04/25 02:25:15;;;;;;;4.50;4.10;;;;;;;9.90;71.34;97903.34;5112031;28;43201;-77
2022/04/25 02:27:43;;;;;;;5.40;4.47;;;;;;;9.89;71.27;97901.69;5112010;28;39945;-76
2022/04/25 02:30:11;;;;;;;5.30;4.70;;;;;;;9.86;71.27;97904.56;5112031;28;41757;-76
2022/04/25 02:32:40;;;;;;;5.13;4.60;;;;;;;9.88;71.14;97907.94;5111892;28;43830;-76
2022/04/25 02:35:09;;;;;;;6.80;5.33;;;;;;;9.89;71.67;97906.97;5094870;28;41427;-76
2022/04/25 02:37:36;;;;;;;7.47;6.67;;;;;;;9.88;71.89;97907.94;5111733;28;39131;-76
2022/04/25 02:40:05;;;;;;;7.40;5.90;;;;;;;9.87;72.32;97914.19;5112960;28;42635;-76
2022/04/25 02:42:33;;;;;;;6.77;5.70;;;;;;;9.86;72.08;97910.69;5111544;28;42740;-77
2022/04/25 02:45:00;;;;;;;6.07;5.47;;;;;;;9.85;72.25;97905.50;5094528;28;42316;-76
2022/04/25 02:47:28;;;;;;;6.70;6.00;;;;;;;9.90;72.17;97911.28;5112713;28;41016;-76
2022/04/25 02:49:57;;;;;;;5.50;4.87;;;;;;;9.90;71.89;97913.91;5111499;28;41633;-76
2022/04/25 02:52:24;;;;;;;6.67;5.10;;;;;;;9.90;71.76;97908.63;5111337;28;41586;-76
2022/04/25 02:54:52;;;;;;;8.13;6.30;;;;;;;9.88;72.05;97910.56;5111644;28;43274;-76
2022/04/25 02:57:20;;;;;;;8.40;6.60;;;;;;;9.86;72.57;97912.50;5111613;28;38897;-76
2022/04/25 02:59:48;;;;;;;6.53;5.90;;;;;;;9.85;72.55;97916.09;5111514;28;42371;-76
2022/04/25 03:02:17;;;;;;;6.13;5.53;;;;;;;9.84;72.49;97914.41;5110167;28;42674;-76
2022/04/25 03:04:44;;;;;;;8.00;6.03;;;;;;;9.82;72.45;97916.31;5111560;28;41132;-76
2022/04/25 03:07:14;;;;;;;7.13;6.00;;;;;;;9.80;72.64;97923.50;5111511;28;40154;-76
2022/04/25 03:09:41;;;;;;;7.20;6.50;;;;;;;9.78;72.37;97925.41;5111139;28;42596;-76
2022/04/25 03:12:11;;;;;;;8.13;6.20;;;;;;;9.72;72.31;97921.44;5111270;28;41947;-76
2022/04/25 03:14:39;;;;;;;5.53;4.90;;;;;;;9.69;72.42;97919.00;5094158;28;41182;-76
2022/04/25 03:17:06;;;;;;;7.83;6.93;;;;;;;9.65;72.87;97921.03;5112393;28;40020;-76
2022/04/25 03:19:34;;;;;;;8.60;7.20;;;;;;;9.54;73.01;97913.06;5111989;28;42704;-76
2022/04/25 03:22:02;;;;;;;8.97;6.50;;;;;;;9.54;72.90;97913.06;5110696;28;41675;-76
2022/04/25 03:24:31;;;;;;;7.33;6.07;;;;;;;9.46;73.15;97920.72;5090936;28;42193;-76
2022/04/25 03:26:59;;;;;;;7.83;6.90;;;;;;;9.35;72.98;97899.50;5107529;28;39999;-76
2022/04/25 03:29:27;;;;;;;6.80;6.10;;;;;;;9.35;72.86;97907.44;5090557;28;42364;-76
2022/04/25 03:31:54;;;;;;;7.80;6.73;;;;;;;9.44;72.92;97933.19;5103092;28;42163;-77
2022/04/25 03:34:22;;;;;;;6.47;5.80;;;;;;;9.41;72.96;97928.09;5110910;28;42626;-76
2022/04/25 03:36:54;;;;;;;6.63;5.90;;;;;;;9.49;72.95;97946.91;5110913;28;41854;-76
2022/04/25 03:39:22;;;;;;;7.90;6.23;;;;;;;9.53;72.57;97947.50;5111591;28;41633;-76
2022/04/25 03:41:52;;;;;;;8.30;6.70;;;;;;;9.54;72.85;97944.75;5109336;28;41872;-76
2022/04/25 03:44:20;;;;;;;9.03;7.53;;;;;;;9.22;72.93;97880.22;5111053;28;41402;-76
2022/04/25 03:46:48;;;;;;;8.13;6.53;;;;;;;9.59;72.76;97950.56;5110689;28;39016;-76
2022/04/25 03:49:15;;;;;;;6.90;5.83;;;;;;;9.60;72.85;97944.34;5110863;28;40440;-76
2022/04/25 03:51:43;;;;;;;6.90;5.97;;;;;;;9.65;72.52;97952.75;5110461;28;42947;-76
2022/04/25 03:54:11;;;;;;;6.70;5.33;;;;;;;9.70;72.78;97953.28;5110777;28;41230;-76
2022/04/25 03:59:24;;;;;;;7.27;5.53;;;;;;;9.76;72.20;97959.94;5108469;28;42753;-76
2022/04/25 04:01:52;;;;;;;8.27;5.77;;;;;;;9.76;72.17;97965.22;5116202;27;43658;-76
2022/04/25 04:04:19;;;;;;;8.23;6.03;;;;;;;9.80;72.16;97971.09;5131392;27;43217;-76
2022/04/25 04:06:47;;;;;;;9.23;6.20;;;;;;;9.78;72.06;97963.28;5131168;27;38972;-76
2022/04/25 04:11:59;;;;;;;8.63;6.93;;;;;;;9.78;72.60;97963.28;5107847;28;44127;-76
2022/04/25 04:14:28;;;;;;;8.10;6.60;;;;;;;9.78;72.63;97968.56;5096367;28;42310;-76
2022/04/25 04:16:55;;;;;;;8.10;6.23;;;;;;;9.73;72.64;97961.00;5113788;28;39947;-76
2022/04/25 04:19:23;;;;;;;7.43;6.47;;;;;;;9.80;72.66;97965.81;5113233;28;42606;-76
2022/04/25 04:21:52;;;;;;;7.93;6.70;;;;;;;9.82;72.73;97971.84;5113592;28;42578;-78
2022/04/25 04:24:19;;;;;;;7.80;6.53;;;;;;;9.84;72.88;97978.72;5099009;27;41161;-76
2022/04/25 04:26:47;;;;;;;7.07;6.37;;;;;;;9.80;72.43;97965.81;5096299;28;40186;-76
2022/04/25 04:29:15;;;;;;;6.60;5.83;;;;;;;9.79;72.28;97970.25;5103725;28;41786;-76
2022/04/25 04:31:46;;;;;;;8.07;7.20;;;;;;;9.89;72.54;97987.13;5096613;28;41109;-76
2022/04/25 04:34:13;;;;;;;8.23;7.10;;;;;;;9.92;72.41;98004.56;5096777;28;41504;-76
2022/04/25 04:36:41;;;;;;;7.43;6.63;;;;;;;9.94;72.48;98000.03;5115032;28;40627;-76
2022/04/25 04:39:08;;;;;;;7.23;6.47;;;;;;;9.95;72.68;98007.00;5113799;28;41646;-76
2022/04/25 04:41:35;;;;;;;8.47;6.00;;;;;;;9.94;72.59;98000.03;5113631;28;42719;-76
2022/04/25 04:44:03;;;;;;;8.37;6.67;;;;;;;10.00;72.51;98016.31;5096439;28;43958;-76
2022/04/25 04:46:31;;;;;;;9.27;6.97;;;;;;;10.03;72.09;98020.50;5096370;28;41391;-76
2022/04/25 04:49:00;;;;;;;7.57;6.77;;;;;;;10.05;72.22;98018.59;5113291;28;42093;-76
2022/04/25 04:51:27;;;;;;;7.83;6.87;;;;;;;10.07;72.40;98029.91;5113128;28;42651;-76
2022/04/25 04:53:55;;;;;;;7.57;6.77;;;;;;;10.09;72.42;98025.34;5092472;28;43244;-76
2022/04/25 04:56:22;;;;;;;6.53;5.83;;;;;;;10.13;71.95;98034.75;5076656;28;39347;-76
2022/04/25 04:58:50;;;;;;;8.57;6.57;;;;;;;10.17;71.76;98030.91;5095695;28;42187;-76
2022/04/25 05:01:18;;;;;;;8.03;6.93;;;;;;;10.20;71.70;98028.06;5113331;28;44057;-76
2022/04/25 05:03:46;;;;;;;7.30;6.60;;;;;;;10.24;72.20;98031.34;5089816;28;41234;-76
2022/04/25 05:06:15;;;;;;;8.93;6.53;;;;;;;10.27;72.12;98034.59;5112687;28;40002;-76
2022/04/25 05:08:42;;;;;;;8.47;7.20;;;;;;;10.30;71.99;98038.81;5113201;28;42680;-76
2022/04/25 05:11:11;;;;;;;9.77;7.83;;;;;;;10.25;71.98;98025.94;5130370;27;42911;-76
2022/04/25 05:13:39;;;;;;;7.70;6.90;;;;;;;10.35;71.96;98037.53;5095652;28;42483;-76
2022/04/25 05:16:07;;;;;;;8.30;6.80;;;;;;;10.48;71.63;98047.19;5093396;28;40624;-76
2022/04/25 05:18:34;;;;;;;8.63;7.20;;;;;;;10.54;71.70;98052.00;5092746;28;40600;-76
2022/04/25 05:21:03;;;;;;;8.70;7.57;;;;;;;10.60;71.82;98055.06;5095424;28;43885;-77
2022/04/25 05:23:32;;;;;;;10.30;8.37;;;;;;;10.66;71.48;98059.03;5099592;28;43522;-77
2022/04/25 05:26:00;;;;;;;7.47;6.67;;;;;;;10.72;71.57;98061.22;5098695;28;40227;-76
2022/04/25 05:28:29;;;;;;;8.00;7.27;;;;;;;10.76;71.37;98062.66;5097465;28;41766;-76
2022/04/25 05:30:56;;;;;;;9.17;7.43;;;;;;;10.81;71.13;98063.19;5081013;28;41252;-76
2022/04/25 05:33:24;;;;;;;9.30;7.70;;;;;;;10.78;71.13;98061.59;5097398;28;42141;-76
2022/04/25 05:35:52;;;;;;;9.03;8.03;;;;;;;10.91;71.53;98073.91;5112016;28;40565;-76
2022/04/25 05:38:20;;;;;;;10.57;8.27;;;;;;;10.96;71.56;98080.56;5112214;28;41836;-76
2022/04/25 05:40:51;;;;;;;9.63;7.30;;;;;;;11.02;71.00;98082.72;5114074;28;42566;-76
2022/04/25 05:43:20;;;;;;;10.43;8.70;;;;;;;11.08;70.89;98074.31;5112599;28;42564;-76
2022/04/25 05:45:48;;;;;;;8.57;7.10;;;;;;;11.13;70.55;98082.75;5114182;28;40011;-76
2022/04/25 05:53:45;;;;;;;9.57;7.33;;;;;;;11.31;70.74;98084.94;5113803;28;43092;-76
2022/04/25 05:56:14;;;;;;;9.37;8.27;;;;;;;11.34;70.66;98090.00;5112544;28;38864;-76
2022/04/25 05:58:42;;;;;;;9.03;7.43;;;;;;;11.41;70.68;98101.81;5111839;28;40715;-76
2022/04/25 06:01:09;;;;;;;8.70;7.50;;;;;;;11.44;70.32;98096.28;5112463;28;41462;-76
2022/04/25 06:03:37;;;;;;;8.17;7.03;;;;;;;11.51;70.00;98108.91;5112102;28;42986;-76
2022/04/25 06:06:05;;;;;;;7.90;7.10;;;;;;;11.52;70.11;98097.34;5113455;28;42382;-76
2022/04/25 06:08:32;;;;;;;7.57;6.73;;;;;;;11.63;70.01;98111.56;5112069;28;40787;-76
2022/04/25 06:11:00;;;;;;;8.77;7.87;;;;;;;11.60;70.09;98102.06;5095977;27;43493;-78
2022/04/25 06:13:29;;;;;;;9.37;8.37;;;;;;;11.72;69.86;98122.31;5104609;27;42085;-77
2022/04/25 06:15:57;;;;;;;9.40;7.97;;;;;;;11.76;70.13;98126.44;5133523;27;39077;-78
2022/04/25 06:18:25;;;;;;;9.27;7.63;;;;;;;11.80;69.66;98119.94;5133168;27;40616;-79
2022/04/25 06:20:52;;;;;;;9.03;7.40;;;;;;;11.84;69.54;98121.38;5133219;27;41749;-77
2022/04/25 06:23:20;;;;;;;8.97;7.20;;;;;;;11.88;69.70;98121.97;5119985;27;42314;-76
2022/04/25 06:25:48;;;;;;;10.43;7.90;;;;;;;11.93;69.38;98118.97;5129470;27;39956;-77
2022/04/25 06:28:15;;;;;;;7.87;7.03;;;;;;;11.99;69.29;98121.94;5093978;28;40851;-78
2022/04/25 06:30:45;;;;;;;10.47;7.57;;;;;;;12.11;69.25;98122.81;5112367;28;43818;-77
2022/04/25 06:33:12;;;;;;;9.00;7.60;;;;;;;12.21;68.95;98119.28;5109696;28;42300;-77
2022/04/25 06:35:40;;;;;;;8.80;7.90;;;;;;;12.29;68.82;98131.09;5111598;28;40028;-76
2022/04/25 06:38:08;;;;;;;9.53;8.53;;;;;;;12.37;68.45;98140.09;5099723;28;41571;-76
2022/04/25 06:40:37;;;;;;;10.17;7.60;;;;;;;12.42;68.14;98143.25;5111057;28;43935;-77
2022/04/25 06:43:05;;;;;;;9.27;7.70;;;;;;;12.50;68.14;98140.78;5079259;28;41380;-77
2022/04/25 06:45:33;;;;;;;10.27;8.13;;;;;;;12.57;67.61;98141.16;5111671;28;39910;-76
2022/04/25 06:48:02;;;;;;;9.17;8.23;;;;;;;12.55;67.50;98128.00;5093796;28;41538;-78
2022/04/25 06:50:30;;;;;;;10.37;8.30;;;;;;;12.73;67.25;98146.06;5112021;28;43000;-75
2022/04/25 06:52:57;;;;;;;12.57;8.70;;;;;;;12.80;67.33;98147.22;5092369;28;41298;-76
2022/04/25 06:55:25;;;;;;;9.53;7.70;;;;;;;12.84;67.58;98148.66;5111578;28;40032;-76
2022/04/25 06:57:54;;;;;;;9.13;8.13;;;;;;;12.87;66.84;98156.34;5093943;28;40855;-77
2022/04/25 07:00:24;;;;;;;10.03;8.50;;;;;;;12.88;66.69;98153.59;5101056;28;41803;-77
2022/04/25 07:02:52;;;;;;;11.27;8.70;;;;;;;12.91;66.72;98160.47;5096398;28;42041;-79
2022/04/25 07:05:21;;;;;;;9.23;8.27;;;;;;;12.94;66.83;98155.75;5093936;28;40152;-77
2022/04/25 07:07:49;;;;;;;8.93;7.90;;;;;;;12.98;66.95;98161.66;5094472;28;41598;-79
2022/04/25 07:10:16;;;;;;;10.37;8.20;;;;;;;13.01;66.29;98161.38;5095011;28;41946;-77
2022/04/25 07:12:44;;;;;;;12.13;9.07;;;;;;;13.03;65.68;98156.78;5092491;28;41560;-77
2022/04/25 07:15:12;;;;;;;11.20;8.53;;;;;;;13.06;65.96;98153.03;5113040;28;40916;-77
2022/04/25 07:17:39;;;;;;;10.87;8.60;;;;;;;13.18;65.85;98160.00;5092462;28;40975;-77
2022/04/25 07:20:09;;;;;;;9.60;7.43;;;;;;;13.27;66.21;98161.88;5094382;28;42148;-81
2022/04/25 07:30:53;;;;;;;8.77;7.87;;;;;;;13.61;65.90;98168.66;5108553;28;42608;-77
2022/04/25 07:33:20;;;;;;;9.30;8.17;;;;;;;13.58;65.50;98154.81;5126443;27;43005;-83
2022/04/25 07:35:48;;;;;;;11.50;9.17;;;;;;;13.80;65.30;98175.94;5112890;28;40073;-77
2022/04/25 07:38:17;;;;;;;10.80;8.53;;;;;;;13.87;65.04;98182.38;5128385;27;42413;-81
2022/04/25 07:40:45;;;;;;;9.60;7.87;;;;;;;13.88;64.43;98181.41;5111685;28;42787;-77
2022/04/25 07:43:31;;;;;;;10.27;7.87;;;;;;;13.97;64.46;98188.59;5110808;28;43928;-77
2022/04/25 07:45:59;;;;;;;11.03;8.47;;;;;;;14.03;64.16;98193.41;5111081;28;39983;-76
2022/04/25 07:48:27;;;;;;;11.30;9.23;;;;;;;14.13;64.34;98189.94;5107794;28;42024;-76
2022/04/25 07:50:54;;;;;;;9.37;8.20;;;;;;;14.21;63.96;98193.63;5110831;28;41949;-77
2022/04/25 07:53:23;;;;;;;10.07;8.80;;;;;;;14.32;63.53;98193.53;5110148;28;41196;-77
2022/04/25 07:55:51;;;;;;;10.67;8.73;;;;;;;14.44;62.93;98202.28;5109852;28;38916;-76
2022/04/25 07:58:18;;;;;;;10.30;7.93;;;;;;;14.59;62.11;98216.88;5106311;27;40682;-78
2022/04/25 08:00:48;;;;;;;11.37;9.23;;;;;;;14.66;62.64;98198.53;5110961;28;43514;-84
2022/04/25 08:03:16;;;;;;;9.60;7.53;;;;;;;14.85;62.31;98213.69;5111495;28;42395;-78
2022/04/25 08:05:44;;;;;;;10.13;7.43;;;;;;;14.94;61.29;98226.22;5093974;28;41415;-77
2022/04/25 08:08:11;;;;;;;9.07;7.43;;;;;;;15.05;61.51;98223.44;5111163;28;41637;-76
2022/04/25 08:10:41;;;;;;;7.43;6.73;;;;;;;15.22;60.82;98229.88;5112000;28;42613;-78
2022/04/25 08:18:38;;;;;;;8.07;7.23;;;;;;;15.72;58.19;98252.78;5110622;28;42437;-78
2022/04/25 08:21:05;;;;;;;8.03;7.10;;;;;;;15.90;58.18;98249.38;5110516;28;44340;-79
2022/04/25 08:23:33;;;;;;;7.73;6.93;;;;;;;16.10;57.98;98254.50;5109635;28;43655;-79
2022/04/25 08:26:02;;;;;;;8.07;7.10;;;;;;;16.31;58.06;98256.16;5094010;28;39930;-79
2022/04/25 08:28:30;;;;;;;8.73;6.83;;;;;;;16.37;56.80;98260.91;5089438;28;41891;-82
2022/04/25 08:30:58;;;;;;;8.93;7.57;;;;;;;16.32;55.92;98268.53;5110864;28;42462;-78
2022/04/25 08:33:25;;;;;;;9.30;8.07;;;;;;;16.27;56.25;98265.44;5117497;27;43108;-79
2022/04/25 08:35:53;;;;;;;8.20;6.73;;;;;;;15.85;55.44;98230.25;5120781;27;41367;-79
2022/04/25 08:38:21;;;;;;;9.43;7.70;;;;;;;16.08;56.33;98252.97;5096464;28;43541;-78
2022/04/25 08:40:50;;;;;;;7.77;6.63;;;;;;;16.10;55.95;98249.16;5110913;28;43676;-77
2022/04/25 08:43:20;;;;;;;7.20;6.43;;;;;;;16.43;55.54;98269.19;5110692;28;42349;-78
2022/04/25 08:45:48;;;;;;;7.57;6.77;;;;;;;16.70;54.58;98271.03;5110938;28;41042;-79
2022/04/25 08:48:16;;;;;;;7.87;7.10;;;;;;;17.17;54.19;98265.56;5109185;28;41896;-80
2022/04/25 08:50:46;;;;;;;8.83;7.60;;;;;;;17.52;53.85;98287.00;5093248;28;42992;-77
2022/04/25 08:53:15;;;;;;;7.40;6.73;;;;;;;17.76;52.48;98296.25;5109272;28;42506;-76
2022/04/25 08:55:42;;;;;;;9.83;7.40;;;;;;;17.79;52.35;98294.13;5109893;28;40384;-77
2022/04/25 08:58:12;;;;;;;8.53;7.20;;;;;;;17.78;51.40;98303.16;5107285;28;41693;-79
2022/04/25 09:00:41;;;;;;;7.27;6.57;;;;;;;17.88;51.87;98295.03;5094320;28;41867;-77
2022/04/25 09:03:09;;;;;;;7.97;6.43;;;;;;;18.54;51.61;98305.19;5096287;28;42979;-79
2022/04/25 09:05:38;;;;;;;7.50;6.70;;;;;;;19.80;50.75;98298.88;5112869;28;40972;-81
2022/04/25 09:08:07;;;;;;;6.80;6.20;;;;;;;21.38;47.94;98324.09;5095778;28;42045;-80
2022/04/25 09:10:35;;;;;;;7.63;6.87;;;;;;;21.97;44.00;98346.75;5114049;28;43083;-81
2022/04/25 09:13:03;;;;;;;6.27;5.67;;;;;;;22.53;43.15;98342.75;5113764;28;42233;-79
2022/04/25 09:15:32;;;;;;;7.13;5.93;;;;;;;23.62;41.09;98343.81;5114088;28;39798;-78
2022/04/25 09:18:02;;;;;;;6.57;5.97;;;;;;;24.18;39.46;98360.22;5113519;28;41995;-80
2022/04/25 09:20:29;;;;;;;7.27;5.63;;;;;;;25.49;38.26;98367.59;5113356;28;42808;-79
2022/04/25 09:22:58;;;;;;;5.73;5.23;;;;;;;25.49;37.39;98373.00;5114602;28;42324;-79
2022/04/25 09:25:26;;;;;;;6.20;5.60;;;;;;;25.19;36.93;98373.31;5113929;28;41811;-80
2022/04/25 09:28:09;;;;;;;5.77;5.27;;;;;;;26.07;37.07;98366.97;5096083;28;40631;-81
2022/04/25 09:30:37;;;;;;;5.87;5.37;;;;;;;26.91;34.50;98387.25;5096576;28;42948;-80
2022/04/25 09:33:22;;;;;;;5.67;5.10;;;;;;;26.23;34.67;98382.00;5113405;28;43450;-81
2022/04/25 09:35:54;;;;;;;5.30;4.90;;;;;;;26.93;35.06;98377.03;5111891;28;39986;-80
2022/04/25 09:38:30;;;;;;;5.00;4.60;;;;;;;26.98;33.51;98382.66;5116434;27;41042;-79
2022/04/25 09:40:59;;;;;;;5.07;4.67;;;;;;;26.54;34.13;98370.56;5121304;27;42028;-80
2022/04/25 09:43:31;;;;;;;5.23;4.83;;;;;;;26.35;34.72;98344.22;5113809;28;43128;-81
2022/04/25 09:46:02;;;;;;;4.17;3.87;;;;;;;25.64;35.20;98373.72;5110487;28;39997;-82
2022/04/25 09:48:31;;;;;;;5.00;4.60;;;;;;;24.93;35.04;98371.28;5130089;27;41851;-82
2022/04/25 09:51:00;;;;;;;5.77;5.27;;;;;;;24.25;36.68;98350.31;5130390;27;42675;-78
2022/04/25 09:53:41;;;;;;;5.43;4.93;;;;;;;23.78;37.92;98345.47;5096078;28;43117;-80
2022/04/25 09:56:14;;;;;;;4.73;4.33;;;;;;;24.18;36.73;98354.81;5111647;28;40733;-78
2022/04/25 09:58:44;;;;;;;4.63;4.23;;;;;;;23.78;37.67;98337.34;5113880;28;42255;-78
2022/04/25 10:01:13;;;;;;;5.67;5.07;;;;;;;23.29;37.99;98355.06;5113206;28;42203;-78
2022/04/25 10:03:43;;;;;;;5.40;4.90;;;;;;;22.74;38.26;98360.94;5112684;28;42460;-79
2022/04/25 10:06:11;;;;;;;4.67;4.27;;;;;;;22.20;39.62;98352.16;5127267;27;39776;-81
2022/04/25 10:08:41;;;;;;;4.63;4.23;;;;;;;21.76;40.14;98350.09;5095734;28;40842;-79
2022/04/25 10:11:10;;;;;;;4.80;4.40;;;;;;;21.42;41.77;98347.78;5112502;28;41937;-79
2022/04/25 10:13:38;;;;;;;4.00;3.70;;;;;;;21.22;42.78;98334.94;5112307;28;41181;-78
2022/04/25 10:16:06;;;;;;;4.40;4.00;;;;;;;21.06;41.79;98344.72;5129987;27;41877;-80
2022/04/25 10:18:35;;;;;;;4.43;4.03;;;;;;;20.89;42.54;98337.75;5112480;28;42019;-81
2022/04/25 10:21:07;;;;;;;4.10;3.73;;;;;;;20.85;42.13;98349.03;5112702;28;42410;-79
2022/04/25 10:23:35;;;;;;;4.50;4.10;;;;;;;20.74;42.53;98326.03;5129771;27;42253;-79
2022/04/25 10:26:03;;;;;;;4.63;4.23;;;;;;;20.77;42.01;98333.75;5114281;28;40655;-79
2022/04/25 10:28:35;;;;;;;5.17;3.67;;;;;;;20.87;41.96;98352.38;5095778;28;40802;-78
2022/04/25 10:31:06;;;;;;;3.83;3.53;;;;;;;21.00;42.30;98352.69;5112661;28;43055;-78
2022/04/25 10:33:51;;;;;;;4.60;4.20;;;;;;;21.16;41.38;98356.13;5112497;28;41493;-81
2022/04/25 10:36:45;;;;;;;4.20;3.80;;;;;;;21.32;41.98;98359.81;5112748;28;38988;-82
2022/04/25 10:39:15;;;;;;;3.87;3.53;;;;;;;21.41;40.96;98350.66;5105558;28;42838;-79
2022/04/25 10:44:56;;;;;;;3.20;3.00;;;;;;;21.80;40.38;98380.25;5113134;27;42355;-80
2022/04/25 10:47:25;;;;;;;3.73;3.20;;;;;;;21.98;38.98;98385.34;5099196;28;39371;-79
2022/04/25 10:50:06;;;;;;;5.53;4.40;;;;;;;22.07;39.67;98381.59;5112320;28;41393;-80
2022/04/25 10:52:57;;;;;;;3.50;3.20;;;;;;;22.18;38.65;98387.41;5102225;28;43692;-79
2022/04/25 10:55:46;;;;;;;3.70;3.40;;;;;;;22.46;38.37;98384.16;5108420;28;43034;-79
2022/04/25 10:58:15;;;;;;;3.97;3.67;;;;;;;22.67;38.95;98369.94;5110346;28;40965;-80
2022/04/25 11:00:54;;;;;;;3.63;3.33;;;;;;;23.15;38.45;98372.13;5095033;28;40910;-79
2022/04/25 11:03:24;;;;;;;3.70;3.40;;;;;;;23.75;37.68;98381.81;5093417;28;42823;-79
2022/04/25 11:05:54;;;;;;;3.27;2.90;;;;;;;25.93;35.88;98397.81;5073204;28;41224;-77
2022/04/25 11:08:38;;;;;;;3.43;3.20;;;;;;;28.03;32.01;98423.13;5105275;28;39718;-78
2022/04/25 11:11:18;;;;;;;3.33;3.10;;;;;;;29.40;30.84;98416.81;5109769;28;41627;-79
2022/04/25 11:14:11;;;;;;;3.07;2.87;;;;;;;30.61;30.00;98429.50;5110495;28;41966;-79
2022/04/25 11:16:39;;;;;;;2.73;2.53;;;;;;;31.95;26.79;98435.88;5093886;28;41951;-77
2022/04/25 11:19:13;;;;;;;3.13;2.93;;;;;;;33.00;25.20;98449.94;5111047;28;39575;-79
2022/04/25 11:21:47;;;;;;;3.33;3.13;;;;;;;33.63;25.59;98440.41;5093610;28;41085;-80
2022/04/25 11:24:30;;;;;;;2.90;2.70;;;;;;;33.19;25.41;98443.06;5110090;28;41774;-80
2022/04/25 11:27:00;;;;;;;3.50;3.20;;;;;;;32.25;25.33;98447.47;5115596;27;41036;-79
2022/04/25 11:29:29;;;;;;;3.50;3.27;;;;;;;31.50;27.57;98428.34;5128420;27;40665;-78
2022/04/25 11:32:32;;;;;;;3.67;3.37;;;;;;;30.89;26.63;98437.88;5110128;28;42809;-82
2022/04/25 11:35:01;;;;;;;3.80;3.50;;;;;;;30.57;27.39;98426.41;5094404;28;41968;-83
2022/04/25 11:37:30;;;;;;;3.40;3.20;;;;;;;31.81;26.76;98415.31;5093078;28;42301;-82
2022/04/25 11:40:02;;;;;;;3.50;3.30;;;;;;;31.63;25.89;98433.56;5094188;28;38982;-80
2022/04/25 11:42:31;;;;;;;3.83;3.53;;;;;;;30.46;26.77;98440.00;5108549;28;41687;-86
2022/04/25 11:45:00;;;;;;;2.90;2.70;;;;;;;29.38;28.15;98423.56;5112323;28;42833;-83
2022/04/25 11:47:30;;;;;;;2.93;2.73;;;;;;;28.50;29.30;98420.94;5093836;28;41219;-83
2022/04/25 11:50:00;;;;;;;3.57;3.27;;;;;;;27.79;29.29;98421.16;5094558;28;41197;-85
2022/04/25 11:52:28;;;;;;;3.50;3.20;;;;;;;27.42;30.67;98415.41;5110275;28;41630;-82
2022/04/25 11:54:56;;;;;;;3.17;2.97;;;;;;;27.26;31.11;98412.28;5111135;28;44081;-89
2022/04/25 11:57:26;;;;;;;3.87;3.57;;;;;;;27.24;29.50;98419.81;5092971;28;41262;-80
2022/04/25 12:00:08;;;;;;;3.87;3.57;;;;;;;26.35;30.00;98428.41;5107338;28;41200;-75
2022/04/25 12:02:40;;;;;;;3.30;3.07;;;;;;;25.54;31.11;98422.06;5109223;28;42714;-79
2022/04/25 12:05:10;;;;;;;3.17;2.97;;;;;;;25.03;32.59;98411.56;5090930;28;43161;-80
2022/04/25 12:15:33;;;;;;;3.03;2.83;;;;;;;24.78;33.47;98399.47;5119347;27;42239;-82
2022/04/25 12:16:00;;;;;;;3.93;3.63;;;;;;;24.96;32.87;98410.69;5092989;28;43870;-80
2022/04/25 12:18:30;;;;;;;3.23;3.03;;;;;;;24.55;34.92;98395.13;5092683;28;42899;-78
2022/04/25 12:21:03;;;;;;;2.70;2.50;;;;;;;24.26;35.30;98389.88;5109813;28;40802;-75
2022/04/25 12:23:32;;;;;;;2.90;2.60;;;;;;;23.96;34.65;98394.56;5109496;28;41853;-81